createdAt,value
2022-11-22T11:07:14.435Z,6.53
2022-11-22T11:12:50.749Z,8.48
2022-11-22T11:15:29.264Z,7.40
2022-11-22T11:18:01.975Z,8.23
2022-11-22T11:20:33.501Z,10.37
2022-11-22T11:23:14.893Z,7.22
2022-11-22T11:25:44.743Z,8.20
2022-11-22T11:28:20.783Z,12.10
2022-11-22T11:30:49.589Z,5.80
2022-11-22T11:36:47.706Z,8.07
2022-11-22T11:39:23.591Z,8.17
2022-11-22T11:41:50.805Z,9.25
2022-11-22T11:44:33.268Z,6.07
2022-11-22T11:47:01.854Z,8.00
2022-11-22T11:49:30.502Z,9.93
2022-11-22T11:51:58.482Z,9.25
2022-11-22T11:54:27.676Z,9.52
2022-11-22T11:56:59.572Z,7.60
2022-11-22T11:59:30.043Z,10.35
2022-11-22T12:02:06.618Z,8.25
2022-11-22T12:04:36.684Z,8.23
2022-11-22T12:07:05.261Z,11.15
2022-11-22T12:09:34.535Z,11.70
2022-11-22T12:12:32.410Z,7.67
2022-11-22T12:15:13.255Z,7.63
2022-11-22T12:17:47.013Z,7.53
2022-11-22T12:20:17.649Z,10.10
2022-11-22T12:22:56.669Z,8.57
2022-11-22T12:25:34.758Z,6.68
2022-11-22T12:28:13.885Z,10.15
2022-11-22T12:30:42.438Z,6.80
2022-11-22T12:33:15.361Z,8.20
2022-11-22T12:35:44.631Z,7.68
2022-11-22T12:38:19.445Z,7.68
2022-11-22T12:40:48.754Z,8.82
2022-11-22T12:43:23.948Z,9.25
2022-11-22T12:45:56.224Z,5.53
2022-11-22T12:48:33.554Z,8.30
2022-11-22T12:51:29.903Z,6.55
2022-11-22T12:54:00.278Z,9.05
2022-11-22T12:56:32.949Z,10.55
2022-11-22T12:59:02.784Z,6.55
2022-11-22T13:01:33.189Z,8.30
2022-11-22T13:04:04.629Z,11.30
2022-11-22T13:06:56.335Z,8.40
2022-11-22T13:09:28.396Z,10.82
2022-11-22T13:12:00.972Z,8.38
2022-11-22T13:14:32.837Z,8.80
2022-11-22T13:17:00.374Z,11.70
2022-11-22T13:19:28.104Z,14.53
2022-11-22T13:22:01.341Z,10.55
2022-11-22T13:24:43.714Z,10.52
2022-11-22T13:27:20.722Z,10.40
2022-11-22T13:33:24.944Z,10.77
2022-11-22T13:35:51.943Z,13.80
2022-11-22T13:38:19.106Z,11.23
2022-11-22T13:40:47.563Z,9.30
2022-11-22T13:43:19.733Z,10.65
2022-11-22T13:45:52.820Z,14.38
2022-11-22T13:48:42.835Z,12.18
2022-11-22T13:51:20.310Z,12.27
2022-11-22T13:53:49.547Z,19.83
2022-11-22T13:56:16.517Z,15.38
2022-11-22T13:58:52.037Z,15.65
2022-11-22T14:01:35.471Z,17.87
2022-11-22T14:04:31.903Z,17.23
2022-11-22T14:07:07.556Z,37.70
2022-11-22T14:09:39.601Z,32.63
2022-11-22T14:12:28.598Z,29.90
